Terminal Aerodrome Forecast
Issued by NWS Wilmington, NC

Home | Current Version | Previous Version | Text Only | Print | Product List | Glossary On
Versions: 1 2 3 4 5 6 7 8 9 10 11 12 13 14 15 16 17 18 19 20 21 22 23 24
000
FTUS42 KILM 180500
TAFFLO
TAF
KFLO 180522Z 1806/1906 00000KT P6SM BKN060
     FM180900 VRB02KT 1SM BR BKN004
     FM181300 04005KT 6SM BR FEW006 BKN015
     FM181500 08007KT P6SM FEW025 SCT050=

USA.gov is the U.S. government's official web portal to all federal, state and local government web resources and services.